createdAt,value
2023-01-15T00:02:30.660Z,4.13
2023-01-15T00:05:02.181Z,3.97
2023-01-15T00:07:33.649Z,4.15
2023-01-15T00:10:05.588Z,3.38
2023-01-15T00:12:37.058Z,4.05
2023-01-15T00:15:08.859Z,3.63
2023-01-15T00:17:40.310Z,3.38
2023-01-15T00:20:12.327Z,4.25
2023-01-15T00:22:43.770Z,3.63
2023-01-15T00:25:15.210Z,3.17
2023-01-15T00:27:46.678Z,4.63
2023-01-15T00:30:18.323Z,3.45
2023-01-15T00:32:49.784Z,4.00
2023-01-15T00:35:23.068Z,3.65
2023-01-15T00:37:54.486Z,3.88
2023-01-15T00:40:25.947Z,3.20
2023-01-15T00:42:57.415Z,4.00
2023-01-15T00:45:34.534Z,3.70
2023-01-15T00:48:06.139Z,3.60
2023-01-15T00:50:37.603Z,3.65
2023-01-15T00:53:09.000Z,3.40
2023-01-15T00:55:40.444Z,3.90
2023-01-15T00:58:11.872Z,3.33
2023-01-15T01:00:43.323Z,3.88
2023-01-15T01:03:14.787Z,4.15
2023-01-15T01:05:46.252Z,4.15
2023-01-15T01:08:18.052Z,3.70
2023-01-15T01:10:49.433Z,3.72
2023-01-15T01:13:20.899Z,3.40
2023-01-15T01:15:52.399Z,3.70
2023-01-15T01:18:23.813Z,3.30
2023-01-15T01:20:55.855Z,3.38
2023-01-15T01:23:27.300Z,3.90
2023-01-15T01:25:58.748Z,3.83
2023-01-15T01:28:30.224Z,3.40
2023-01-15T01:31:05.468Z,3.38
2023-01-15T01:33:36.947Z,3.40
2023-01-15T01:36:08.488Z,3.33
2023-01-15T01:38:39.894Z,3.28
2023-01-15T01:41:11.312Z,3.25
2023-01-15T01:43:59.589Z,4.13
2023-01-15T01:46:36.380Z,3.63
2023-01-15T01:49:14.000Z,3.37
2023-01-15T01:51:50.760Z,3.30
2023-01-15T01:54:25.452Z,3.22
2023-01-15T01:56:57.663Z,3.37
2023-01-15T01:59:29.813Z,3.17
2023-01-15T02:02:01.598Z,4.32
2023-01-15T02:04:33.563Z,3.35
2023-01-15T02:07:05.872Z,3.60
2023-01-15T02:09:37.312Z,3.45
2023-01-15T02:12:17.087Z,3.60
2023-01-15T02:15:13.740Z,3.42
2023-01-15T02:18:00.431Z,2.70
2023-01-15T02:20:31.831Z,3.33
2023-01-15T02:23:11.620Z,3.83
2023-01-15T02:26:05.250Z,3.50
2023-01-15T02:28:40.560Z,3.70
2023-01-15T02:31:26.215Z,3.20
2023-01-15T02:34:20.631Z,3.53
2023-01-15T02:37:00.012Z,3.13
2023-01-15T02:39:33.469Z,3.05
2023-01-15T02:42:08.084Z,3.95
2023-01-15T02:44:44.381Z,3.00
2023-01-15T02:47:19.583Z,3.28
2023-01-15T02:49:54.692Z,3.13
2023-01-15T02:52:31.816Z,3.95
2023-01-15T02:55:07.980Z,3.30
2023-01-15T02:57:43.522Z,3.80
2023-01-15T03:00:17.655Z,3.30
2023-01-15T03:03:18.427Z,3.45
2023-01-15T03:06:15.980Z,3.75
2023-01-15T03:08:48.023Z,3.35
2023-01-15T03:11:20.332Z,3.27
2023-01-15T03:14:03.426Z,3.60
2023-01-15T03:16:34.845Z,3.70
2023-01-15T03:19:06.325Z,3.92
2023-01-15T03:21:59.456Z,3.47
2023-01-15T03:24:51.743Z,3.33
2023-01-15T03:27:24.131Z,3.70
2023-01-15T03:30:02.809Z,3.05
2023-01-15T03:32:34.767Z,3.47
2023-01-15T03:35:45.163Z,3.25
2023-01-15T03:38:21.318Z,3.25
2023-01-15T03:41:07.968Z,3.88
2023-01-15T03:43:45.880Z,3.07
2023-01-15T03:46:52.306Z,3.10
2023-01-15T03:49:34.083Z,2.97
2023-01-15T03:52:17.413Z,3.43
2023-01-15T03:55:02.083Z,3.53
2023-01-15T03:57:39.395Z,3.73
2023-01-15T04:00:17.031Z,3.42
2023-01-15T04:02:49.798Z,3.70
2023-01-15T04:05:22.206Z,3.22
2023-01-15T04:07:54.696Z,3.05
2023-01-15T04:10:26.170Z,3.53
2023-01-15T04:12:57.619Z,3.17
2023-01-15T04:15:29.131Z,2.85
2023-01-15T04:18:00.609Z,2.75
2023-01-15T04:20:32.019Z,2.75
2023-01-15T04:23:03.452Z,3.63
2023-01-15T04:25:34.901Z,3.08
2023-01-15T04:28:07.382Z,2.95
2023-01-15T04:30:39.251Z,2.75
2023-01-15T04:33:11.707Z,3.10
2023-01-15T04:35:43.118Z,2.72
2023-01-15T04:38:14.518Z,2.72
2023-01-15T04:40:45.932Z,3.58
2023-01-15T04:43:17.351Z,2.67
2023-01-15T04:45:48.771Z,2.92
2023-01-15T04:48:20.176Z,2.75
2023-01-15T04:50:51.927Z,2.83
2023-01-15T04:53:23.382Z,2.90
2023-01-15T04:56:00.411Z,2.72
2023-01-15T04:58:32.765Z,2.90
2023-01-15T05:01:13.266Z,2.30
2023-01-15T05:03:48.201Z,3.00
2023-01-15T05:06:19.651Z,2.38
2023-01-15T05:08:51.079Z,2.67
2023-01-15T05:11:22.963Z,2.28
2023-01-15T05:13:54.849Z,3.10
2023-01-15T05:16:28.045Z,2.70
2023-01-15T05:19:01.934Z,2.70
2023-01-15T05:21:36.304Z,2.83
2023-01-15T05:24:08.317Z,2.80
2023-01-15T05:26:39.854Z,3.05
2023-01-15T05:29:11.896Z,2.73
2023-01-15T05:31:43.313Z,3.33
2023-01-15T05:34:15.143Z,2.55
2023-01-15T05:36:46.591Z,2.97
2023-01-15T05:39:18.187Z,2.50
2023-01-15T05:41:49.640Z,3.05
2023-01-15T05:44:23.085Z,3.23
2023-01-15T05:46:57.363Z,3.63
2023-01-15T05:49:29.818Z,2.85
2023-01-15T05:52:01.775Z,2.40
2023-01-15T05:54:35.309Z,2.60
2023-01-15T05:57:06.854Z,2.83
2023-01-15T05:59:38.872Z,2.90
2023-01-15T06:02:10.282Z,3.33
2023-01-15T06:04:41.825Z,3.53
2023-01-15T06:07:13.307Z,3.00
2023-01-15T06:09:45.048Z,3.03
2023-01-15T06:12:16.538Z,3.15
2023-01-15T06:14:47.992Z,3.20
2023-01-15T06:17:19.477Z,3.35
2023-01-15T06:19:50.881Z,3.22
2023-01-15T06:22:22.273Z,3.58
2023-01-15T06:24:53.703Z,4.03
2023-01-15T06:27:25.315Z,3.13
2023-01-15T06:29:56.747Z,3.20
2023-01-15T06:32:28.231Z,3.25
2023-01-15T06:34:59.675Z,3.10
2023-01-15T06:37:31.143Z,2.83
2023-01-15T06:40:02.615Z,3.47
2023-01-15T06:42:34.097Z,3.58
2023-01-15T06:45:05.963Z,3.20
2023-01-15T06:47:37.380Z,3.53
2023-01-15T06:50:09.428Z,3.25
2023-01-15T06:52:40.875Z,3.58
2023-01-15T06:55:12.353Z,3.90
2023-01-15T06:57:44.546Z,3.45
2023-01-15T07:00:16.656Z,3.60
2023-01-15T07:02:48.141Z,3.50
2023-01-15T07:05:19.539Z,4.00
2023-01-15T07:07:51.001Z,3.58
2023-01-15T07:10:22.439Z,3.53
2023-01-15T07:12:53.857Z,3.60
2023-01-15T07:15:25.290Z,3.20
2023-01-15T07:17:57.452Z,3.72
2023-01-15T07:20:28.943Z,3.13
2023-01-15T07:23:00.412Z,3.08
2023-01-15T07:25:31.897Z,3.60
2023-01-15T07:28:03.375Z,3.45
2023-01-15T07:30:34.831Z,3.38
2023-01-15T07:33:06.239Z,3.40
2023-01-15T07:35:37.691Z,3.70
2023-01-15T07:38:09.136Z,3.57
2023-01-15T07:40:40.599Z,3.63
2023-01-15T07:43:12.043Z,3.37
2023-01-15T07:45:43.960Z,3.35
2023-01-15T07:48:15.451Z,3.47
2023-01-15T07:50:46.895Z,3.70
2023-01-15T07:53:18.341Z,4.00
2023-01-15T07:55:49.908Z,3.72
2023-01-15T07:58:21.328Z,3.92
2023-01-15T08:00:53.016Z,3.70
2023-01-15T08:03:24.443Z,3.75
2023-01-15T08:05:56.971Z,3.30
2023-01-15T08:08:28.478Z,3.47
2023-01-15T08:11:03.039Z,3.80
2023-01-15T08:13:34.440Z,3.08
2023-01-15T08:16:06.110Z,3.78
2023-01-15T08:18:38.234Z,3.30
2023-01-15T08:21:15.087Z,3.87
2023-01-15T08:23:46.531Z,3.03
2023-01-15T08:26:18.032Z,3.30
2023-01-15T08:28:49.472Z,3.28
2023-01-15T08:31:20.970Z,3.17
2023-01-15T08:33:52.427Z,3.45
2023-01-15T08:36:23.846Z,3.47
2023-01-15T08:38:55.232Z,3.03
2023-01-15T08:41:26.787Z,3.30
2023-01-15T08:43:58.277Z,2.60
2023-01-15T08:46:29.664Z,3.40
2023-01-15T08:49:01.078Z,2.90
2023-01-15T08:51:32.510Z,3.10
2023-01-15T08:54:04.034Z,3.10
2023-01-15T08:56:35.595Z,3.37
2023-01-15T08:59:07.782Z,3.40
2023-01-15T09:01:39.444Z,3.22
2023-01-15T09:04:16.145Z,3.30
2023-01-15T09:06:49.158Z,3.15
2023-01-15T09:09:20.620Z,3.55
2023-01-15T09:11:52.048Z,3.63
2023-01-15T09:14:57.862Z,3.50
2023-01-15T09:17:14.903Z,3.33
2023-01-15T09:19:46.440Z,4.13
2023-01-15T09:22:17.945Z,3.63
2023-01-15T09:24:49.394Z,4.20
2023-01-15T09:27:20.870Z,3.63
2023-01-15T09:29:52.377Z,3.40
2023-01-15T09:32:23.843Z,3.28
2023-01-15T09:34:55.380Z,3.50
2023-01-15T09:37:26.810Z,3.83
2023-01-15T09:39:58.226Z,3.30
2023-01-15T09:43:20.329Z,3.67
2023-01-15T09:46:05.398Z,3.55
2023-01-15T09:48:56.073Z,3.35
2023-01-15T09:51:27.482Z,2.90
2023-01-15T09:54:01.750Z,3.60
2023-01-15T09:56:36.975Z,3.70
2023-01-15T09:59:35.127Z,3.22
2023-01-15T10:02:51.615Z,3.22
2023-01-15T10:05:35.111Z,3.33
2023-01-15T10:08:14.582Z,2.90
2023-01-15T10:10:50.736Z,2.67
2023-01-15T10:13:45.465Z,3.40
2023-01-15T10:16:23.371Z,3.30
2023-01-15T10:18:56.918Z,3.13
2023-01-15T10:21:45.405Z,3.38
2023-01-15T10:24:30.660Z,3.87
2023-01-15T10:27:08.419Z,3.38
2023-01-15T10:30:12.873Z,3.93
2023-01-15T10:33:00.636Z,3.08
2023-01-15T10:35:41.417Z,3.00
2023-01-15T10:38:40.383Z,3.28
2023-01-15T10:41:26.955Z,3.70
2023-01-15T10:44:15.333Z,3.78
2023-01-15T10:46:58.327Z,3.40
2023-01-15T10:49:31.015Z,2.92
2023-01-15T10:52:23.765Z,3.60
2023-01-15T10:55:06.444Z,3.60
2023-01-15T10:58:01.880Z,3.50
2023-01-15T11:00:41.582Z,3.10
2023-01-15T11:03:19.514Z,3.15
2023-01-15T11:05:50.938Z,3.63
2023-01-15T11:11:25.396Z,3.90
2023-01-15T11:13:57.094Z,3.55
2023-01-15T11:16:28.587Z,3.78
2023-01-15T11:19:03.014Z,4.45
2023-01-15T11:21:41.765Z,3.70
2023-01-15T11:24:17.786Z,3.75
2023-01-15T11:26:52.790Z,3.80
2023-01-15T11:29:33.621Z,3.70
2023-01-15T11:32:20.286Z,4.03
2023-01-15T11:34:56.399Z,4.00
2023-01-15T11:37:28.812Z,3.58
2023-01-15T11:40:02.122Z,4.00
2023-01-15T11:42:36.580Z,3.58
2023-01-15T11:45:14.321Z,3.83
2023-01-15T11:47:55.693Z,3.38
2023-01-15T11:50:27.140Z,3.53
2023-01-15T11:52:59.334Z,4.60
2023-01-15T11:55:31.144Z,3.42
2023-01-15T11:58:02.829Z,4.05
2023-01-15T12:00:41.432Z,4.47
2023-01-15T12:03:17.177Z,3.50
2023-01-15T12:06:07.839Z,4.20
2023-01-15T12:09:21.126Z,3.85
2023-01-15T12:12:15.684Z,4.28
2023-01-15T12:15:25.362Z,4.07
2023-01-15T12:18:18.171Z,4.47
2023-01-15T12:21:04.203Z,4.03
2023-01-15T12:23:48.378Z,3.60
2023-01-15T12:26:32.878Z,3.50
2023-01-15T12:29:19.052Z,4.05
2023-01-15T12:32:03.140Z,3.85
2023-01-15T12:34:41.809Z,3.75
2023-01-15T12:37:20.191Z,4.82
2023-01-15T12:40:01.301Z,4.40
2023-01-15T12:42:35.615Z,3.72
2023-01-15T12:45:25.372Z,4.60
2023-01-15T12:48:22.445Z,4.30
2023-01-15T12:50:56.757Z,4.10
2023-01-15T12:53:47.179Z,3.78
2023-01-15T12:56:45.547Z,4.10
2023-01-15T12:59:24.303Z,4.57
2023-01-15T13:02:21.859Z,4.00
2023-01-15T13:05:16.636Z,4.28
2023-01-15T13:08:06.497Z,4.47
2023-01-15T13:10:39.956Z,4.13
2023-01-15T13:13:17.132Z,4.40
2023-01-15T13:15:51.403Z,4.70
2023-01-15T13:18:31.567Z,3.97
2023-01-15T13:21:14.447Z,3.63
2023-01-15T13:23:58.469Z,4.38
2023-01-15T13:26:45.201Z,4.25
2023-01-15T13:29:22.740Z,3.60
2023-01-15T13:32:03.345Z,4.18
2023-01-15T13:34:43.475Z,4.00
2023-01-15T13:37:22.021Z,3.95
2023-01-15T13:39:59.062Z,4.53
2023-01-15T13:42:31.657Z,4.18
2023-01-15T13:45:24.672Z,4.00
2023-01-15T13:48:02.690Z,4.40
2023-01-15T13:50:42.490Z,4.60
2023-01-15T13:53:29.766Z,4.05
2023-01-15T13:56:08.790Z,3.87
2023-01-15T13:58:54.806Z,3.67
2023-01-15T14:01:32.137Z,3.33
2023-01-15T14:04:09.302Z,3.97
2023-01-15T14:06:40.677Z,4.15
2023-01-15T14:09:28.446Z,4.43
2023-01-15T14:12:46.059Z,4.00
2023-01-15T14:15:54.757Z,4.18
2023-01-15T14:18:35.854Z,4.40
2023-01-15T14:21:26.331Z,4.40
2023-01-15T14:24:22.709Z,4.38
2023-01-15T14:27:05.870Z,4.55
2023-01-15T14:29:58.858Z,4.47
2023-01-15T14:32:50.647Z,4.43
2023-01-15T14:35:24.915Z,4.75
2023-01-15T14:38:05.951Z,5.10
2023-01-15T14:40:37.378Z,5.07
2023-01-15T14:43:17.328Z,4.45
2023-01-15T14:45:49.308Z,4.93
2023-01-15T14:48:29.746Z,4.22
2023-01-15T14:51:14.565Z,4.75
2023-01-15T14:53:52.836Z,4.75
2023-01-15T14:56:31.474Z,4.50
2023-01-15T14:59:10.595Z,5.22
2023-01-15T15:01:48.034Z,4.97
2023-01-15T15:04:44.303Z,4.93
2023-01-15T15:07:21.171Z,4.97
2023-01-15T15:10:04.688Z,4.55
2023-01-15T15:13:00.910Z,5.60
2023-01-15T15:15:50.947Z,4.78
2023-01-15T15:18:31.842Z,4.85
2023-01-15T15:21:12.402Z,4.28
2023-01-15T15:24:06.822Z,3.80
2023-01-15T15:26:39.027Z,4.75
2023-01-15T15:29:10.456Z,4.57
2023-01-15T15:31:46.636Z,3.78
2023-01-15T15:34:26.689Z,2.85
2023-01-15T15:37:01.670Z,3.45
2023-01-15T15:39:45.336Z,3.53
2023-01-15T15:42:24.316Z,3.45
2023-01-15T15:44:59.685Z,3.10
2023-01-15T15:47:38.210Z,3.70
2023-01-15T15:50:26.965Z,4.03
2023-01-15T15:52:59.220Z,3.78
2023-01-15T15:55:43.875Z,4.65
2023-01-15T15:58:24.822Z,4.75
2023-01-15T16:00:56.320Z,5.03
2023-01-15T16:03:32.800Z,5.03
2023-01-15T16:06:07.425Z,4.75
2023-01-15T16:08:38.898Z,4.03
2023-01-15T16:11:12.540Z,3.90
2023-01-15T16:13:47.277Z,4.15
2023-01-15T16:16:20.716Z,4.03
2023-01-15T16:18:54.959Z,4.05
2023-01-15T16:21:33.522Z,4.20
2023-01-15T16:24:07.658Z,4.22
2023-01-15T16:26:52.665Z,4.18
2023-01-15T16:29:30.496Z,3.88
2023-01-15T16:32:11.266Z,3.80
2023-01-15T16:34:42.978Z,3.63
2023-01-15T16:37:28.523Z,3.63
2023-01-15T16:40:02.781Z,3.15
2023-01-15T16:42:38.077Z,3.30
2023-01-15T16:45:25.953Z,3.83
2023-01-15T16:48:00.503Z,3.67
2023-01-15T16:50:33.722Z,3.65
2023-01-15T16:53:06.979Z,3.43
2023-01-15T16:55:41.905Z,3.47
2023-01-15T16:58:13.329Z,3.65
2023-01-15T17:00:53.024Z,2.92
2023-01-15T17:03:26.569Z,4.10
2023-01-15T17:06:02.077Z,3.60
2023-01-15T17:08:36.773Z,3.40
2023-01-15T17:11:20.229Z,3.55
2023-01-15T17:13:52.053Z,3.35
2023-01-15T17:16:23.635Z,3.50
2023-01-15T17:18:55.013Z,3.30
2023-01-15T17:21:26.435Z,3.33
2023-01-15T17:23:57.891Z,3.27
2023-01-15T17:26:29.634Z,3.25
2023-01-15T17:29:01.097Z,3.50
2023-01-15T17:31:34.560Z,3.20
2023-01-15T17:34:06.024Z,3.20
2023-01-15T17:36:37.482Z,2.67
2023-01-15T17:39:08.905Z,3.13
2023-01-15T17:41:40.319Z,2.60
2023-01-15T17:44:14.568Z,3.00
2023-01-15T17:46:45.996Z,2.80
2023-01-15T17:49:17.427Z,2.70
2023-01-15T17:51:48.844Z,2.90
2023-01-15T17:54:20.288Z,2.80
2023-01-15T17:56:51.721Z,2.60
2023-01-15T17:59:23.124Z,2.63
2023-01-15T18:01:54.694Z,2.45
2023-01-15T18:04:33.724Z,2.58
2023-01-15T18:07:05.419Z,2.85
2023-01-15T18:09:37.897Z,2.80
2023-01-15T18:12:09.477Z,2.33
2023-01-15T18:14:40.903Z,2.60
2023-01-15T18:17:12.344Z,2.60
2023-01-15T18:19:43.749Z,3.05
2023-01-15T18:22:15.227Z,2.35
2023-01-15T18:24:46.685Z,2.65
2023-01-15T18:27:18.158Z,2.20
2023-01-15T18:29:49.583Z,2.85
2023-01-15T18:32:21.056Z,2.30
2023-01-15T18:34:52.451Z,2.10
2023-01-15T18:37:23.866Z,2.30
2023-01-15T18:39:55.347Z,2.20
2023-01-15T18:42:26.765Z,2.30
2023-01-15T18:44:58.197Z,2.40
2023-01-15T18:47:29.655Z,1.93
2023-01-15T18:50:01.106Z,1.90
2023-01-15T18:52:32.503Z,2.10
2023-01-15T18:55:04.135Z,1.88
2023-01-15T18:57:35.585Z,1.70
2023-01-15T19:00:07.907Z,1.73
2023-01-15T19:02:39.542Z,1.73
2023-01-15T19:05:10.992Z,2.05
2023-01-15T19:07:43.694Z,2.08
2023-01-15T19:10:17.222Z,1.60
2023-01-15T19:12:49.169Z,1.60
2023-01-15T19:15:20.671Z,1.63
2023-01-15T19:17:52.403Z,1.30
2023-01-15T19:20:23.910Z,1.50
2023-01-15T19:22:55.347Z,1.42
2023-01-15T19:25:28.266Z,1.47
2023-01-15T19:27:59.762Z,1.20
2023-01-15T19:30:31.241Z,1.00
2023-01-15T19:33:03.427Z,1.23
2023-01-15T19:35:35.107Z,1.00
2023-01-15T19:38:06.503Z,1.03
2023-01-15T19:40:40.424Z,1.02
2023-01-15T19:43:12.045Z,1.00
2023-01-15T19:45:45.253Z,0.88
2023-01-15T19:48:17.423Z,1.00
2023-01-15T19:50:48.859Z,0.95
2023-01-15T19:53:20.304Z,1.05
2023-01-15T19:55:51.908Z,0.90
2023-01-15T19:58:23.358Z,0.90
2023-01-15T20:00:54.801Z,0.73
2023-01-15T20:03:26.473Z,0.93
2023-01-15T20:05:57.919Z,1.20
2023-01-15T20:08:29.363Z,0.80
2023-01-15T20:11:00.769Z,1.10
2023-01-15T20:13:32.235Z,1.05
2023-01-15T20:16:12.165Z,0.80
2023-01-15T20:18:43.841Z,0.70
2023-01-15T20:21:15.320Z,0.60
2023-01-15T20:23:46.780Z,0.77
2023-01-15T20:26:18.212Z,0.90
2023-01-15T20:28:49.635Z,0.60
2023-01-15T20:31:21.576Z,0.80
2023-01-15T20:33:53.156Z,0.75
2023-01-15T20:36:24.578Z,0.80
2023-01-15T20:38:55.979Z,0.80
2023-01-15T20:41:27.525Z,0.85
2023-01-15T20:43:58.956Z,0.70
2023-01-15T20:46:30.432Z,0.90
2023-01-15T20:49:01.915Z,0.75
2023-01-15T20:51:33.326Z,0.68
2023-01-15T20:54:04.747Z,0.82
2023-01-15T20:56:36.180Z,0.82
2023-01-15T20:59:07.767Z,1.00
2023-01-15T21:01:39.373Z,1.13
2023-01-15T21:04:10.932Z,1.00
2023-01-15T21:06:42.403Z,1.25
2023-01-15T21:09:13.847Z,1.27
2023-01-15T21:11:45.332Z,1.40
2023-01-15T21:14:16.768Z,1.23
2023-01-15T21:16:48.203Z,1.65
2023-01-15T21:19:19.667Z,1.80
2023-01-15T21:21:51.104Z,2.00
2023-01-15T21:24:22.530Z,1.90
2023-01-15T21:26:54.003Z,1.92
2023-01-15T21:29:25.492Z,1.63
2023-01-15T21:31:57.232Z,1.48
2023-01-15T21:34:28.723Z,1.52
2023-01-15T21:37:00.186Z,2.00
2023-01-15T21:39:31.607Z,1.50
2023-01-15T21:42:03.029Z,1.30
2023-01-15T21:44:34.566Z,1.63
2023-01-15T21:47:07.895Z,1.80
2023-01-15T21:49:40.489Z,1.50
2023-01-15T21:52:15.505Z,1.35
2023-01-15T21:54:47.617Z,1.30
2023-01-15T21:57:19.024Z,1.42
2023-01-15T21:59:50.500Z,1.33
2023-01-15T22:02:22.164Z,1.45
2023-01-15T22:04:53.613Z,1.23
2023-01-15T22:07:25.022Z,1.10
2023-01-15T22:09:56.635Z,1.48
2023-01-15T22:12:28.237Z,1.30
2023-01-15T22:14:59.700Z,1.25
2023-01-15T22:17:31.150Z,1.20
2023-01-15T22:20:03.404Z,1.05
2023-01-15T22:22:34.856Z,1.20
2023-01-15T22:25:06.923Z,1.10
2023-01-15T22:27:38.338Z,1.23
2023-01-15T22:30:11.661Z,1.30
2023-01-15T22:32:43.145Z,1.30
2023-01-15T22:35:14.570Z,1.00
2023-01-15T22:37:46.030Z,1.48
2023-01-15T22:40:17.523Z,1.10
2023-01-15T22:42:48.989Z,1.35
2023-01-15T22:45:20.830Z,1.60
2023-01-15T22:47:52.274Z,1.48
2023-01-15T22:50:23.725Z,1.67
2023-01-15T22:52:55.139Z,1.77
2023-01-15T22:55:26.528Z,1.90
2023-01-15T22:57:58.006Z,1.95
2023-01-15T23:00:29.483Z,2.10
2023-01-15T23:03:00.903Z,1.60
2023-01-15T23:05:36.412Z,2.22
2023-01-15T23:08:07.883Z,1.70
2023-01-15T23:10:44.382Z,2.00
2023-01-15T23:13:15.866Z,2.20
2023-01-15T23:15:56.346Z,1.80
2023-01-15T23:18:28.059Z,2.20
2023-01-15T23:21:04.966Z,2.28
2023-01-15T23:23:37.543Z,2.53
2023-01-15T23:26:15.832Z,2.50
2023-01-15T23:28:47.268Z,3.13
2023-01-15T23:31:19.949Z,2.80
2023-01-15T23:33:51.433Z,2.97
2023-01-15T23:36:23.346Z,3.03
2023-01-15T23:38:54.862Z,3.17
2023-01-15T23:41:26.579Z,3.83
2023-01-15T23:43:57.990Z,3.63
2023-01-15T23:46:30.556Z,3.73
2023-01-15T23:49:03.175Z,3.83
2023-01-15T23:51:35.581Z,3.75
2023-01-15T23:54:07.015Z,3.50
2023-01-15T23:56:38.468Z,3.00
2023-01-15T23:59:10.034Z,3.20
